Time;durP1;ratioP1;P1;durP2;ratioP2;P2;SDS_P1;SDS_P2;PMS_P1;PMS_P2;Temp;Humidity;BMP_temperature;BMP_pressure;BME280_temperature;BME280_humidity;BME280_pressure;Samples;Min_cycle;Max_cycle;Signal;HPM_P1;HPM_P2
2021/10/29 00:01:17;;;;;;;13.05;6.63;;;;;;;8.04;61.02;100483.69;4975990;28;20407;-80
2021/10/29 00:03:43;;;;;;;13.18;5.63;;;;;;;8.00;61.09;100484.75;4974005;28;20042;-76
2021/10/29 00:06:09;;;;;;;16.45;6.22;;;;;;;7.96;61.82;100477.97;4958795;28;20381;-78
2021/10/29 00:08:35;;;;;;;16.40;6.05;;;;;;;7.94;62.10;100462.25;4956190;28;20053;-78
2021/10/29 00:11:01;;;;;;;21.63;6.47;;;;;;;8.09;62.10;100460.56;4973219;28;20042;-78
2021/10/29 00:13:27;;;;;;;13.50;4.97;;;;;;;8.22;62.62;100466.88;4975593;28;20047;-78
2021/10/29 00:15:53;;;;;;;14.23;5.30;;;;;;;8.29;62.79;100474.41;4972896;28;20069;-79
2021/10/29 00:18:18;;;;;;;16.77;6.40;;;;;;;8.13;62.18;100471.78;4956048;28;20110;-79
2021/10/29 00:20:44;;;;;;;15.57;6.72;;;;;;;8.01;62.89;100470.66;4939752;28;20460;-79
2021/10/29 00:23:10;;;;;;;13.98;6.30;;;;;;;7.91;62.73;100476.44;4955970;28;20041;-82
2021/10/29 00:25:36;;;;;;;15.35;6.50;;;;;;;7.90;63.01;100490.53;4957846;28;20370;-78
2021/10/29 00:28:02;;;;;;;17.42;6.97;;;;;;;7.89;62.96;100501.16;4966189;28;20049;-80
2021/10/29 00:30:28;;;;;;;25.08;7.20;;;;;;;7.87;62.53;100503.00;4977111;28;20043;-80
2021/10/29 00:32:54;;;;;;;20.08;6.30;;;;;;;7.90;63.23;100500.19;4942249;28;20042;-82
2021/10/29 00:35:20;;;;;;;16.98;6.88;;;;;;;8.02;62.66;100499.53;4925857;28;20573;-82
2021/10/29 00:37:46;;;;;;;17.80;6.55;;;;;;;8.04;62.30;100502.94;4974107;28;20043;-78
2021/10/29 00:40:13;;;;;;;17.20;6.22;;;;;;;8.07;62.12;100499.31;4975736;28;20145;-77
2021/10/29 00:42:40;;;;;;;19.13;7.00;;;;;;;8.10;61.90;100493.88;4975976;28;20073;-78
2021/10/29 00:45:08;;;;;;;13.25;6.07;;;;;;;8.08;61.99;100487.84;4957717;28;20053;-79
2021/10/29 00:47:36;;;;;;;21.35;6.50;;;;;;;8.03;61.79;100497.78;4974162;28;20205;-77
2021/10/29 00:50:04;;;;;;;21.17;6.82;;;;;;;7.90;62.38;100495.78;4975661;28;20042;-80
2021/10/29 00:52:29;;;;;;;20.08;7.20;;;;;;;7.88;62.74;100495.00;4979325;28;20050;-79
2021/10/29 00:54:55;;;;;;;20.10;6.80;;;;;;;7.89;62.91;100496.72;4957935;28;20051;-78
2021/10/29 00:57:25;;;;;;;21.27;7.40;;;;;;;7.82;62.88;100495.31;4942035;28;20057;-80
2021/10/29 00:59:51;;;;;;;21.50;8.60;;;;;;;7.76;63.10;100495.66;4978690;28;20043;-83
2021/10/29 01:02:20;;;;;;;16.02;7.13;;;;;;;7.74;63.60;100506.28;4949942;28;20054;-83
2021/10/29 01:04:46;;;;;;;27.50;7.75;;;;;;;7.73;64.22;100507.19;4980981;28;20053;-79
2021/10/29 01:07:12;;;;;;;25.48;8.63;;;;;;;7.82;64.45;100507.66;4993140;28;20050;-78
2021/10/29 01:09:38;;;;;;;26.83;8.43;;;;;;;7.92;63.59;100517.63;4961429;28;20463;-79
2021/10/29 01:12:04;;;;;;;19.67;8.05;;;;;;;7.93;63.40;100514.06;4957375;28;20052;-77
2021/10/29 01:14:30;;;;;;;18.98;7.97;;;;;;;7.85;63.92;100510.97;4974910;28;20043;-78
2021/10/29 01:16:56;;;;;;;18.08;6.90;;;;;;;7.93;63.54;100519.31;4981239;28;20046;-82
2021/10/29 01:19:32;;;;;;;21.10;6.53;;;;;;;7.97;63.74;100524.44;4977360;28;20113;-79
2021/10/29 01:21:59;;;;;;;18.55;7.10;;;;;;;7.94;63.13;100510.50;4958492;28;20492;-77
2021/10/29 01:24:25;;;;;;;19.33;7.13;;;;;;;7.82;63.85;100511.13;4972015;28;20069;-77
2021/10/29 01:26:51;;;;;;;19.20;7.43;;;;;;;7.68;64.20;100518.91;4960718;28;20491;-79
2021/10/29 01:29:17;;;;;;;21.42;7.35;;;;;;;7.61;64.16;100519.22;4976848;28;20035;-80
2021/10/29 01:31:43;;;;;;;18.02;7.45;;;;;;;7.56;64.91;100510.72;4985225;28;20485;-78
2021/10/29 01:34:09;;;;;;;35.95;14.50;;;;;;;7.57;64.64;100501.03;4994898;28;20575;-78
2021/10/29 01:36:36;;;;;;;43.25;25.33;;;;;;;7.57;64.91;100507.13;4993438;28;20498;-79
2021/10/29 01:39:02;;;;;;;49.08;24.70;;;;;;;7.56;65.35;100504.56;4976363;28;20137;-80
2021/10/29 01:41:28;;;;;;;41.42;19.85;;;;;;;7.57;65.08;100501.03;4969959;28;20046;-81
2021/10/29 01:43:54;;;;;;;71.75;40.90;;;;;;;7.57;65.22;100487.84;4979029;28;20403;-77
2021/10/29 01:46:20;;;;;;;25.73;11.52;;;;;;;7.59;64.96;100489.47;4991423;28;20512;-79
2021/10/29 01:48:52;;;;;;;33.80;14.85;;;;;;;7.55;65.48;100485.31;4974490;28;20046;-78
2021/10/29 01:51:18;;;;;;;36.60;17.95;;;;;;;7.60;65.85;100490.31;4957846;28;20050;-79
2021/10/29 01:53:44;;;;;;;37.80;20.35;;;;;;;7.63;65.69;100495.44;4973949;28;20085;-79
2021/10/29 01:56:11;;;;;;;30.35;13.40;;;;;;;7.64;65.55;100491.00;4966070;28;20050;-79
2021/10/29 01:58:37;;;;;;;34.78;15.88;;;;;;;7.65;65.99;100496.22;4976083;28;20510;-82
2021/10/29 02:01:12;;;;;;;28.45;9.70;;;;;;;7.58;65.71;100500.09;4978271;28;20070;-80
2021/10/29 02:03:38;;;;;;;25.13;8.35;;;;;;;7.52;65.55;100510.94;4961947;28;20053;-80
2021/10/29 02:06:04;;;;;;;20.20;7.63;;;;;;;7.41;66.50;100522.00;4973762;28;20047;-79
2021/10/29 02:08:30;;;;;;;25.52;8.50;;;;;;;7.34;66.58;100528.50;4973359;28;20066;-80
2021/10/29 02:10:56;;;;;;;24.67;8.52;;;;;;;7.39;66.97;100531.75;4971867;28;20515;-81
2021/10/29 02:13:22;;;;;;;26.20;11.55;;;;;;;7.38;66.92;100527.44;4993347;28;20137;-78
2021/10/29 02:15:48;;;;;;;36.88;17.20;;;;;;;7.24;67.50;100515.81;4965680;28;20042;-77
2021/10/29 02:18:14;;;;;;;44.70;24.70;;;;;;;7.20;67.54;100524.78;4959390;28;20119;-79
2021/10/29 02:20:41;;;;;;;38.20;16.02;;;;;;;7.24;68.12;100521.06;4978604;28;20522;-82
2021/10/29 02:23:07;;;;;;;25.67;9.82;;;;;;;7.26;68.16;100524.50;4976789;28;20042;-80
2021/10/29 02:25:33;;;;;;;26.13;8.90;;;;;;;7.26;67.74;100513.97;4976073;28;20062;-79
2021/10/29 02:27:59;;;;;;;20.17;8.05;;;;;;;7.28;67.84;100498.94;4965256;28;20043;-79
2021/10/29 02:30:24;;;;;;;28.17;11.82;;;;;;;7.35;67.61;100503.88;4974352;28;20113;-78
2021/10/29 02:32:51;;;;;;;24.02;10.15;;;;;;;7.42;67.63;100511.38;4963551;28;20072;-78
2021/10/29 02:35:17;;;;;;;25.17;10.00;;;;;;;7.40;67.13;100507.13;4956215;28;20457;-80
2021/10/29 02:37:43;;;;;;;27.98;10.45;;;;;;;7.40;67.81;100499.25;4956100;28;20077;-79
2021/10/29 02:40:09;;;;;;;35.53;14.45;;;;;;;7.26;68.08;100503.44;4989007;28;20101;-78
2021/10/29 02:42:35;;;;;;;27.25;9.75;;;;;;;7.06;68.32;100511.44;4986422;28;20046;-77
2021/10/29 02:45:00;;;;;;;28.15;9.95;;;;;;;6.93;69.14;100506.78;4973545;28;20043;-80
2021/10/29 02:47:27;;;;;;;23.83;9.32;;;;;;;6.77;69.22;100521.59;4945331;28;20042;-80
2021/10/29 02:49:53;;;;;;;26.15;9.50;;;;;;;6.61;69.81;100522.31;4982468;28;20129;-79
2021/10/29 02:52:19;;;;;;;23.63;9.93;;;;;;;6.48;70.46;100511.53;4973384;28;20047;-81
2021/10/29 02:54:44;;;;;;;28.27;9.85;;;;;;;6.41;70.97;100519.78;4988202;28;20162;-80
2021/10/29 02:57:10;;;;;;;19.00;8.93;;;;;;;6.29;71.42;100532.56;4975222;28;20546;-80
2021/10/29 02:59:36;;;;;;;23.23;9.20;;;;;;;6.28;70.91;100538.72;4963638;28;20047;-79
2021/10/29 03:02:05;;;;;;;29.38;9.20;;;;;;;6.32;71.11;100542.91;4975463;28;20053;-81
2021/10/29 03:04:30;;;;;;;24.65;8.77;;;;;;;6.35;71.05;100541.06;4957182;28;20042;-82
2021/10/29 03:06:56;;;;;;;25.00;9.55;;;;;;;6.37;71.07;100547.09;4925319;28;20048;-79
2021/10/29 03:09:22;;;;;;;28.27;10.68;;;;;;;6.29;71.37;100542.19;4974307;28;20117;-80
2021/10/29 03:11:48;;;;;;;35.65;9.57;;;;;;;6.27;71.23;100534.38;4968248;28;20081;-80
2021/10/29 03:14:14;;;;;;;27.30;10.40;;;;;;;6.28;71.65;100540.47;4990922;28;20046;-81
2021/10/29 03:16:40;;;;;;;27.95;8.20;;;;;;;6.22;71.16;100552.13;4955986;28;20459;-79
2021/10/29 03:19:06;;;;;;;27.80;8.98;;;;;;;6.20;71.11;100548.72;4936547;29;20062;-82
2021/10/29 03:21:33;;;;;;;28.10;9.75;;;;;;;6.16;72.12;100560.28;4957392;28;20126;-78
2021/10/29 03:23:59;;;;;;;24.08;8.52;;;;;;;6.12;72.15;100549.06;4977264;28;20074;-78
2021/10/29 03:26:25;;;;;;;33.67;10.23;;;;;;;6.14;72.10;100554.22;4940036;28;20484;-78
2021/10/29 03:28:50;;;;;;;24.02;9.57;;;;;;;6.05;72.11;100549.41;4974470;28;20492;-79
2021/10/29 03:31:17;;;;;;;30.25;9.48;;;;;;;6.03;72.00;100551.25;4975896;28;20034;-78
2021/10/29 03:33:42;;;;;;;34.00;9.73;;;;;;;6.08;71.88;100559.75;4973034;28;20044;-80
2021/10/29 03:36:08;;;;;;;32.20;10.20;;;;;;;6.14;71.55;100565.63;4923974;28;20121;-81
2021/10/29 03:41:18;;;;;;;25.67;9.32;;;;;;;6.21;70.94;100566.19;4972700;28;20599;-79
2021/10/29 03:46:16;;;;;;;25.42;9.32;;;;;;;6.21;70.93;100555.69;4973600;28;20051;-83
2021/10/29 03:51:20;;;;;;;36.65;9.82;;;;;;;6.30;70.34;100554.41;4973723;28;20483;-83
2021/10/29 03:56:18;;;;;;;30.35;10.90;;;;;;;6.46;70.92;100551.94;4973442;28;20101;-83
2021/10/29 03:58:46;;;;;;;36.20;12.30;;;;;;;6.45;70.17;100563.38;4957592;28;20043;-81
2021/10/29 04:01:12;;;;;;;40.67;12.15;;;;;;;6.41;71.14;100556.56;4976643;28;20046;-79
2021/10/29 04:03:38;;;;;;;31.77;11.05;;;;;;;6.21;71.26;100568.81;4961516;28;20043;-79
2021/10/29 04:06:03;;;;;;;34.53;10.50;;;;;;;6.23;71.32;100574.00;4977402;28;20055;-82
2021/10/29 04:08:29;;;;;;;29.40;10.40;;;;;;;6.35;71.14;100572.59;4978920;28;20039;-81
2021/10/29 04:10:57;;;;;;;41.20;14.25;;;;;;;6.41;70.83;100562.66;4977030;28;20675;-80
2021/10/29 04:13:26;;;;;;;39.60;11.93;;;;;;;6.46;71.33;100575.59;4977513;28;20047;-78
2021/10/29 04:15:52;;;;;;;33.85;11.35;;;;;;;6.41;70.96;100573.16;4961286;28;20108;-80
2021/10/29 04:18:18;;;;;;;37.75;13.00;;;;;;;6.39;70.61;100574.16;4960801;28;20464;-80
2021/10/29 04:20:44;;;;;;;31.30;11.20;;;;;;;6.36;70.41;100585.66;4960310;28;20105;-83
2021/10/29 04:23:10;;;;;;;61.25;20.65;;;;;;;6.40;70.18;100576.72;4960678;28;20050;-79
2021/10/29 04:25:35;;;;;;;32.53;11.23;;;;;;;6.35;70.22;100576.06;4930062;28;20046;-80
2021/10/29 04:28:08;;;;;;;34.83;12.57;;;;;;;6.34;69.88;100558.59;4961827;28;20484;-82
2021/10/29 04:30:34;;;;;;;32.10;11.80;;;;;;;6.35;69.93;100562.94;4976844;28;20047;-80
2021/10/29 04:33:06;;;;;;;26.73;11.68;;;;;;;6.36;69.04;100564.63;4956794;28;20043;-79
2021/10/29 04:35:41;;;;;;;34.22;12.95;;;;;;;6.39;69.27;100568.91;4996088;28;20042;-84
2021/10/29 04:38:08;;;;;;;34.17;11.50;;;;;;;6.40;68.56;100565.34;4964300;28;20050;-80
2021/10/29 04:40:35;;;;;;;28.98;11.60;;;;;;;6.42;68.84;100566.16;4979516;28;20059;-79
2021/10/29 04:43:05;;;;;;;30.67;13.65;;;;;;;6.39;68.61;100566.28;4995816;28;20050;-79
2021/10/29 04:45:32;;;;;;;29.85;11.30;;;;;;;6.43;68.76;100571.31;4962402;28;20129;-80
2021/10/29 04:48:01;;;;;;;30.83;12.95;;;;;;;6.50;68.30;100574.53;4996106;28;20052;-79
2021/10/29 04:50:28;;;;;;;35.72;12.82;;;;;;;6.49;68.56;100570.19;4994515;28;20121;-79
2021/10/29 04:52:55;;;;;;;27.60;12.70;;;;;;;6.54;68.20;100573.47;4978750;28;20042;-82
2021/10/29 04:55:20;;;;;;;32.53;12.23;;;;;;;6.67;68.22;100572.88;4994308;28;20313;-80
2021/10/29 04:57:47;;;;;;;31.45;13.30;;;;;;;6.69;68.07;100571.03;4994984;28;20049;-80
2021/10/29 05:00:16;;;;;;;29.55;11.65;;;;;;;6.66;68.66;100587.81;4977301;28;20389;-80
2021/10/29 05:02:42;;;;;;;65.95;22.15;;;;;;;6.66;68.00;100587.81;4995057;28;20138;-81
2021/10/29 05:05:09;;;;;;;36.97;13.13;;;;;;;6.70;67.88;100588.53;4981503;28;20070;-79
2021/10/29 05:07:36;;;;;;;37.70;12.43;;;;;;;6.77;68.13;100589.97;4969436;28;20542;-79
2021/10/29 05:10:04;;;;;;;34.78;12.75;;;;;;;6.75;68.21;100605.81;4973922;28;20419;-78
2021/10/29 05:12:30;;;;;;;33.67;12.35;;;;;;;6.69;67.94;100598.22;4973481;28;20663;-79
2021/10/29 05:14:56;;;;;;;32.65;12.00;;;;;;;6.69;67.58;100602.59;4973679;28;20046;-79
2021/10/29 05:17:22;;;;;;;38.45;11.93;;;;;;;6.76;68.10;100602.22;4940939;28;20456;-76
2021/10/29 05:19:48;;;;;;;33.47;11.25;;;;;;;6.74;68.04;100603.22;4956673;28;20055;-80
2021/10/29 05:22:14;;;;;;;28.95;11.75;;;;;;;6.73;67.61;100604.16;4940470;28;20631;-80
2021/10/29 05:24:39;;;;;;;25.63;10.43;;;;;;;6.72;67.61;100607.72;4974092;28;20034;-82
2021/10/29 05:27:06;;;;;;;32.83;11.15;;;;;;;6.75;67.38;100599.69;4958013;28;20456;-82
2021/10/29 05:29:32;;;;;;;30.20;13.60;;;;;;;6.83;67.28;100601.94;4941233;28;20031;-78
2021/10/29 05:32:01;;;;;;;29.50;10.43;;;;;;;6.85;66.73;100603.59;4956968;28;20039;-79
2021/10/29 05:34:28;;;;;;;27.10;11.55;;;;;;;6.82;67.03;100611.63;4956986;28;20094;-80
2021/10/29 05:36:55;;;;;;;28.75;10.80;;;;;;;6.84;66.99;100607.16;4973661;28;20101;-80
2021/10/29 05:39:21;;;;;;;26.48;10.45;;;;;;;6.76;66.64;100601.41;4971283;28;20042;-80
2021/10/29 05:41:48;;;;;;;23.17;9.95;;;;;;;6.83;66.43;100599.31;4974085;28;20043;-81
2021/10/29 05:44:18;;;;;;;18.38;8.30;;;;;;;6.88;65.21;100598.19;4957721;28;20042;-82
2021/10/29 05:46:46;;;;;;;14.93;7.10;;;;;;;6.86;64.83;100602.66;4968231;28;20066;-80
2021/10/29 05:49:13;;;;;;;19.70;7.55;;;;;;;6.90;64.35;100600.75;4955745;28;20042;-80
2021/10/29 05:51:48;;;;;;;14.00;6.90;;;;;;;6.85;64.31;100603.59;4939823;28;20042;-81
2021/10/29 05:56:45;;;;;;;15.50;7.13;;;;;;;7.04;63.42;100598.34;4954228;28;20143;-81
2021/10/29 05:59:11;;;;;;;17.50;7.63;;;;;;;6.97;63.98;100616.16;4957271;28;20521;-85
2021/10/29 06:01:37;;;;;;;17.42;6.72;;;;;;;7.08;63.89;100620.09;4967954;28;20523;-83
2021/10/29 06:04:03;;;;;;;16.10;7.50;;;;;;;7.17;63.29;100614.38;4924960;28;20125;-82
2021/10/29 06:06:29;;;;;;;21.83;8.68;;;;;;;7.22;63.35;100607.09;4923811;28;20575;-79
2021/10/29 06:08:55;;;;;;;18.48;7.45;;;;;;;7.29;62.97;100619.03;4956077;28;20046;-82
2021/10/29 06:11:21;;;;;;;24.00;7.60;;;;;;;7.33;63.22;100617.13;4974792;28;20408;-81
2021/10/29 06:13:47;;;;;;;18.95;8.60;;;;;;;7.31;63.33;100620.75;4958250;28;20504;-81
2021/10/29 06:16:13;;;;;;;17.50;7.50;;;;;;;7.33;62.97;100613.63;4941404;28;20051;-84
2021/10/29 06:18:39;;;;;;;21.85;8.65;;;;;;;7.25;63.05;100612.25;4958416;28;20051;-82
2021/10/29 06:21:05;;;;;;;32.17;12.85;;;;;;;7.26;63.41;100621.84;4941622;28;20054;-83
2021/10/29 06:26:39;;;;;;;20.02;8.93;;;;;;;7.17;63.89;100617.00;4907193;29;20083;-82
2021/10/29 06:29:05;;;;;;;19.88;7.93;;;;;;;7.19;63.74;100609.91;4914258;29;20111;-80
2021/10/29 06:31:32;;;;;;;19.65;8.60;;;;;;;7.16;64.01;100609.19;4917284;29;20051;-81
2021/10/29 06:33:58;;;;;;;21.35;9.80;;;;;;;7.18;63.37;100605.56;4918452;29;20054;-80
2021/10/29 06:36:24;;;;;;;17.45;8.50;;;;;;;7.18;63.80;100599.44;4887579;29;20142;-82
2021/10/29 06:38:50;;;;;;;17.42;8.90;;;;;;;7.27;63.83;100607.72;4893335;29;20148;-79
2021/10/29 06:41:16;;;;;;;19.90;9.18;;;;;;;7.28;63.06;100617.34;4915602;29;20506;-81
2021/10/29 06:44:01;;;;;;;20.35;9.85;;;;;;;7.31;63.50;100605.81;4885128;29;20058;-79
2021/10/29 06:52:34;;;;;;;17.88;9.23;;;;;;;7.36;63.54;100614.31;4894120;29;20115;-82
2021/10/29 07:00:41;;;;;;;19.80;8.63;;;;;;;7.55;62.71;100609.03;4915646;29;19919;-80
2021/10/29 07:11:36;;;;;;;24.70;10.13;;;;;;;7.74;62.43;100608.97;4938396;29;20080;-79
2021/10/29 07:41:08;;;;;;;31.17;11.77;;;;;;;8.09;61.98;100595.78;4973122;28;20042;-78
2021/10/29 07:43:39;;;;;;;16.08;6.13;;;;;;;8.05;61.86;100591.59;4955017;28;20047;-80
2021/10/29 07:46:06;;;;;;;13.70;6.60;;;;;;;8.03;61.86;100580.28;4957218;28;20047;-78
2021/10/29 07:48:33;;;;;;;17.58;7.72;;;;;;;8.07;61.94;100594.16;4972992;28;20053;-78
2021/10/29 07:51:00;;;;;;;13.48;7.15;;;;;;;8.13;61.84;100585.94;4973605;28;20082;-79
2021/10/29 07:53:28;;;;;;;14.50;6.78;;;;;;;8.02;61.54;100585.63;4956576;28;20136;-79
2021/10/29 07:55:56;;;;;;;15.07;7.63;;;;;;;8.07;62.01;100592.38;4956482;28;20043;-83
2021/10/29 07:58:22;;;;;;;19.60;8.15;;;;;;;8.16;62.13;100592.81;4955545;28;20102;-77
2021/10/29 08:00:48;;;;;;;20.42;9.60;;;;;;;8.24;61.93;100580.94;4972773;28;20464;-78
2021/10/29 08:03:14;;;;;;;166.38;54.90;;;;;;;8.45;61.73;100579.88;4972205;28;20066;-82
2021/10/29 08:05:42;;;;;;;15.10;7.20;;;;;;;8.62;61.09;100573.75;4938911;28;20038;-82
2021/10/29 08:08:07;;;;;;;21.13;9.05;;;;;;;8.71;60.48;100573.22;4971970;28;20058;-79
2021/10/29 08:10:34;;;;;;;13.90;6.88;;;;;;;8.89;60.13;100564.28;4973002;28;20102;-79
2021/10/29 08:13:03;;;;;;;12.88;6.63;;;;;;;8.82;59.89;100560.31;4972231;28;20090;-79
2021/10/29 08:15:30;;;;;;;16.48;7.43;;;;;;;8.93;59.95;100548.31;4972162;28;20043;-80
2021/10/29 08:17:56;;;;;;;20.50;8.90;;;;;;;8.90;60.34;100551.97;4971444;28;20038;-79
2021/10/29 08:20:22;;;;;;;17.42;7.63;;;;;;;8.77;60.45;100550.94;4973628;28;20145;-78
2021/10/29 08:22:50;;;;;;;17.23;7.00;;;;;;;8.85;60.04;100549.59;4956069;28;20047;-82
2021/10/29 08:25:16;;;;;;;19.77;7.70;;;;;;;8.74;60.48;100542.25;4973793;28;20050;-85
2021/10/29 08:27:42;;;;;;;16.00;7.43;;;;;;;8.66;61.00;100554.16;4956040;28;20042;-80
2021/10/29 08:30:09;;;;;;;15.20;6.82;;;;;;;8.61;60.70;100561.47;4974932;28;20054;-79
2021/10/29 08:32:37;;;;;;;16.85;7.20;;;;;;;8.71;60.92;100553.00;4958231;28;20046;-79
2021/10/29 08:35:04;;;;;;;16.73;7.07;;;;;;;8.69;60.82;100560.13;4955257;28;20180;-81
2021/10/29 08:37:31;;;;;;;16.60;6.70;;;;;;;8.65;60.96;100553.31;4927765;28;20039;-81
2021/10/29 08:39:58;;;;;;;17.02;7.10;;;;;;;8.71;60.69;100547.72;4942149;28;20086;-81
2021/10/29 08:42:24;;;;;;;15.25;6.68;;;;;;;8.71;61.11;100558.25;4952731;28;20050;-80
2021/10/29 08:44:50;;;;;;;19.58;6.60;;;;;;;8.70;61.17;100542.53;4943591;28;20038;-78
2021/10/29 08:47:21;;;;;;;48.00;18.10;;;;;;;8.73;61.49;100550.25;4944986;28;20049;-81
2021/10/29 08:49:48;;;;;;;29.75;9.95;;;;;;;8.75;61.61;100566.88;4928452;28;20137;-80
2021/10/29 08:52:20;;;;;;;16.85;6.47;;;;;;;8.63;61.29;100562.25;4943787;28;20034;-83
2021/10/29 08:54:48;;;;;;;14.32;5.97;;;;;;;8.56;61.36;100554.69;4975221;28;20054;-80
2021/10/29 08:57:14;;;;;;;15.20;6.38;;;;;;;8.63;61.65;100552.56;4976314;28;20057;-81
2021/10/29 08:59:40;;;;;;;12.90;5.97;;;;;;;8.62;61.60;100552.63;4959291;28;20054;-80
2021/10/29 09:02:21;;;;;;;23.10;7.20;;;;;;;8.71;61.21;100563.53;4989262;28;20041;-79
2021/10/29 09:05:05;;;;;;;16.40;6.30;;;;;;;8.66;61.70;100555.03;4978689;28;20124;-78
2021/10/29 09:10:17;;;;;;;13.77;6.32;;;;;;;8.76;61.53;100543.97;4976013;28;20570;-82
2021/10/29 09:32:34;;;;;;;17.73;6.10;;;;;;;9.05;61.76;100518.59;4974385;28;20078;-81
2021/10/29 09:35:10;;;;;;;14.93;5.07;;;;;;;9.05;61.92;100522.06;4995149;28;20453;-78
2021/10/29 09:38:01;;;;;;;14.93;4.82;;;;;;;9.07;61.51;100520.19;4980552;28;20515;-78
2021/10/29 09:41:02;;;;;;;20.63;7.85;;;;;;;9.03;61.62;100523.09;4946638;28;20097;-82
2021/10/29 09:44:10;;;;;;;20.98;8.98;;;;;;;9.00;61.99;100525.94;4966092;28;20039;-83
2021/10/29 09:47:01;;;;;;;15.95;6.20;;;;;;;9.00;62.04;100515.38;4944527;28;20051;-80
2021/10/29 09:49:33;;;;;;;13.57;5.43;;;;;;;8.89;62.51;100516.81;4957326;28;20043;-81
2021/10/29 09:57:26;;;;;;;10.00;4.78;;;;;;;8.91;62.82;100516.75;4979375;28;20547;-79
2021/10/29 09:59:57;;;;;;;47.42;16.63;;;;;;;8.90;62.64;100500.03;4996786;28;20077;-81
2021/10/29 10:02:29;;;;;;;9.45;4.68;;;;;;;8.96;62.64;100503.28;4934855;28;20049;-83
2021/10/29 10:05:00;;;;;;;10.32;4.10;;;;;;;8.98;62.60;100501.41;4949890;28;20064;-82
2021/10/29 10:07:34;;;;;;;7.75;4.28;;;;;;;9.01;62.91;100496.81;4960769;28;20038;-79
2021/10/29 10:10:07;;;;;;;13.93;4.93;;;;;;;9.13;62.81;100494.41;4949117;28;20042;-79
2021/10/29 10:12:42;;;;;;;9.23;4.75;;;;;;;9.10;62.64;100494.56;4963815;28;20053;-81
2021/10/29 10:15:14;;;;;;;8.95;4.93;;;;;;;9.19;62.41;100497.50;4963338;28;20050;-80
2021/10/29 10:17:43;;;;;;;15.98;6.00;;;;;;;9.33;62.13;100486.19;4980120;28;20062;-83
2021/10/29 10:20:11;;;;;;;18.98;5.47;;;;;;;9.49;61.87;100495.81;4940554;28;20047;-84
2021/10/29 10:22:45;;;;;;;12.93;4.80;;;;;;;9.57;61.73;100482.16;4928835;28;20114;-83
2021/10/29 10:25:38;;;;;;;15.27;5.68;;;;;;;9.60;61.40;100489.91;4950487;28;20500;-85
2021/10/29 10:28:53;;;;;;;12.23;6.15;;;;;;;9.62;61.49;100485.34;4930468;29;20059;-86
2021/10/29 10:40:12;;;;;;;23.77;5.15;;;;;;;9.70;61.37;100485.75;4934347;29;20063;-81
2021/10/29 10:43:02;;;;;;;9.57;4.40;;;;;;;9.67;61.59;100478.00;4915185;29;20056;-82
2021/10/29 10:45:46;;;;;;;28.63;10.03;;;;;;;9.69;61.56;100494.63;4899005;29;20046;-86
2021/10/29 10:48:21;;;;;;;11.43;3.45;;;;;;;9.73;61.76;100498.78;4915487;29;20096;-82
2021/10/29 10:50:54;;;;;;;14.40;5.13;;;;;;;9.79;61.90;100508.97;4933153;29;20055;-80
2021/10/29 10:53:41;;;;;;;10.50;3.95;;;;;;;9.84;61.76;100511.34;4933964;29;20103;-82
2021/10/29 10:56:40;;;;;;;9.52;3.58;;;;;;;9.75;62.04;100509.28;4902133;29;20425;-80
2021/10/29 11:10:58;;;;;;;9.48;2.83;;;;;;;9.83;62.73;100493.78;4975794;28;20053;-84
2021/10/29 11:13:49;;;;;;;16.73;3.95;;;;;;;9.81;62.95;100507.09;4981644;28;20415;-81
2021/10/29 11:16:16;;;;;;;;;;;;;;;9.87;63.22;100505.88;4943404;28;20117;-81
2021/10/29 11:19:03;;;;;;;36.72;10.65;;;;;;;9.87;63.69;100516.47;4951002;28;19922;-81
2021/10/29 11:21:39;;;;;;;25.92;10.60;;;;;;;9.91;63.45;100506.56;4971264;28;20125;-80
2021/10/29 11:24:08;;;;;;;38.08;13.05;;;;;;;9.84;64.11;100512.22;4940364;28;20047;-80
2021/10/29 11:26:39;;;;;;;17.85;6.07;;;;;;;9.82;64.29;100508.78;4954607;28;20050;-81
2021/10/29 11:29:06;;;;;;;7.40;2.38;;;;;;;9.77;64.63;100515.28;4908160;29;20055;-80
2021/10/29 11:31:47;;;;;;;9.98;3.95;;;;;;;9.69;64.84;100507.81;4923653;29;20134;-81
2021/10/29 11:34:14;;;;;;;;;;;;;;;9.70;65.20;100512.19;4922147;29;20515;-81
2021/10/29 11:36:49;;;;;;;11.20;3.00;;;;;;;9.70;64.92;100510.38;4936959;29;20276;-83
2021/10/29 11:39:18;;;;;;;13.30;3.50;;;;;;;9.73;65.08;100506.69;4937060;29;20047;-82
2021/10/29 11:41:44;;;;;;;;;;;;;;;9.79;65.13;100519.53;4905647;29;20513;-82
2021/10/29 11:44:18;;;;;;;17.02;4.55;;;;;;;9.78;65.38;100520.50;4936757;29;19922;-79
2021/10/29 11:46:56;;;;;;;9.00;2.78;;;;;;;9.77;65.30;100510.88;4929638;29;20050;-81
2021/10/29 11:49:28;;;;;;;47.40;13.32;;;;;;;9.89;65.24;100514.56;4936872;29;20046;-82
2021/10/29 11:51:55;;;;;;;20.58;5.47;;;;;;;9.71;65.96;100513.88;4952000;29;20059;-82
2021/10/29 11:54:24;;;;;;;15.23;4.75;;;;;;;9.70;66.39;100517.47;4904093;29;20040;-81
2021/10/29 11:59:55;;;;;;;13.38;3.95;;;;;;;9.76;67.21;100524.16;4936818;29;20118;-82
2021/10/29 12:07:58;;;;;;;18.63;5.40;;;;;;;9.68;68.79;100517.56;4913305;29;20370;-82
2021/10/29 12:10:28;;;;;;;9.02;3.70;;;;;;;9.46;69.02;100511.81;4933922;29;20089;-82
2021/10/29 12:13:18;;;;;;;47.67;16.15;;;;;;;9.51;69.59;100510.63;4922433;29;20047;-84
2021/10/29 12:15:45;;;;;;;16.88;4.80;;;;;;;9.44;69.80;100506.66;4888611;29;20512;-84
2021/10/29 12:18:14;;;;;;;14.00;4.53;;;;;;;9.33;71.20;100517.00;4908054;28;20488;-81
2021/10/29 12:21:06;;;;;;;11.77;4.13;;;;;;;9.43;71.17;100517.31;4949424;28;20051;-78
2021/10/29 12:23:34;;;;;;;12.40;3.15;;;;;;;9.38;71.59;100509.66;4939345;29;20075;-84
2021/10/29 12:26:12;;;;;;;6.45;2.10;;;;;;;9.36;71.93;100506.25;4939605;29;20051;-83
2021/10/29 12:28:42;;;;;;;6.63;2.95;;;;;;;9.39;72.30;100517.50;4930563;28;20089;-78
2021/10/29 12:31:20;;;;;;;8.82;2.25;;;;;;;9.38;72.36;100514.94;4924766;28;20448;-85
2021/10/29 13:01:39;;;;;;;13.02;5.38;;;;;;;9.48;73.82;100505.53;4926363;29;20094;-78
2021/10/29 13:04:14;;;;;;;32.45;10.65;;;;;;;9.47;73.91;100503.84;4912986;29;20099;-80
2021/10/29 13:06:51;;;;;;;13.75;4.75;;;;;;;9.41;74.40;100506.84;4923170;29;20060;-82
2021/10/29 13:09:23;;;;;;;22.52;6.88;;;;;;;9.42;74.35;100508.53;4898777;29;20446;-86
2021/10/29 13:12:06;;;;;;;19.60;7.03;;;;;;;9.44;74.44;100498.72;4894273;29;20466;-82
2021/10/29 13:14:35;;;;;;;10.82;3.67;;;;;;;9.44;74.15;100493.44;4900444;29;20048;-81
2021/10/29 13:17:05;;;;;;;16.27;6.25;;;;;;;9.35;74.97;100494.84;4915183;29;20048;-81
2021/10/29 13:19:47;;;;;;;19.45;6.78;;;;;;;9.30;74.90;100490.78;4899659;29;20056;-81
2021/10/29 13:57:24;;;;;;;12.65;5.18;;;;;;;9.29;76.68;100474.06;4971226;28;20090;-79
2021/10/29 14:34:50;;;;;;;18.80;6.30;;;;;;;9.31;77.01;100495.97;4948350;28;20039;-83
2021/10/29 14:37:25;;;;;;;17.40;5.05;;;;;;;9.28;76.87;100492.66;4962992;28;20518;-79
2021/10/29 14:40:08;;;;;;;27.23;8.98;;;;;;;9.40;76.63;100502.50;4995199;28;20042;-80
2021/10/29 14:42:44;;;;;;;17.95;6.60;;;;;;;9.50;76.42;100508.94;4960461;28;20255;-84
2021/10/29 14:45:16;;;;;;;23.83;7.50;;;;;;;9.64;76.08;100509.91;4948357;28;20043;-80
2021/10/29 14:47:55;;;;;;;14.25;5.45;;;;;;;9.59;76.21;100507.53;4940428;28;20070;-81
2021/10/29 15:06:32;;;;;;;21.35;9.20;;;;;;;9.43;77.49;100523.41;4925689;28;20047;-84
2021/10/29 15:28:11;;;;;;;27.38;9.23;;;;;;;9.58;76.89;100505.81;4927307;28;20043;-83
2021/10/29 15:30:58;;;;;;;32.38;10.57;;;;;;;9.59;76.82;100509.34;4961352;28;20134;-83
2021/10/29 15:46:40;;;;;;;15.40;6.30;;;;;;;9.61;77.14;100510.94;4942702;28;20047;-84
2021/10/29 15:52:00;;;;;;;20.13;8.45;;;;;;;9.66;76.74;100519.44;4959425;28;20046;-83
2021/10/29 15:54:26;;;;;;;19.73;8.02;;;;;;;9.68;76.60;100516.69;4956810;28;20031;-83
2021/10/29 15:56:58;;;;;;;12.77;5.90;;;;;;;9.62;76.76;100515.28;4935870;28;20042;-81
2021/10/29 16:02:02;;;;;;;24.02;9.05;;;;;;;9.67;76.98;100514.97;4960860;28;20042;-79
2021/10/29 16:18:31;;;;;;;14.77;6.05;;;;;;;9.58;78.61;100515.56;4975294;28;20412;-77
2021/10/29 16:20:57;;;;;;;13.70;5.38;;;;;;;9.59;78.57;100522.53;4975455;28;20047;-82